• Join FlightAware (Why Join?)
  • Login
  • US Flag 
 
06:43AM EST


 

Airport Tracker/Info


-or-


 

Live Flight TrackerFlight Track Log ✈ ACA7033 ✈ 26-Sep-2013 ✈ KRDU - KCMH

Flight Track Log - Related Links

Times and Time Zones

All times are in EDT time to prevent confusion due to time zone crossing. See the ACA7033 flight status page for this flight to view local times or setup timezone preferences in your user account.

Time Position Orientation Groundspeed Altitude Reporting Facility
EDT Latitude Longitude Course Direction KTS MPH feet Rate Location/Type
02:56PM 35.8947 -78.7764 11° North 152 175 1,400  Level Washington Center
02:57PM 35.9556 -78.7611 11° North 216 249 4,100 2,400 Climbing Washington Center
02:58PM 35.9764 -78.8414 288° West 246 283 6,800 3,240 Climbing Washington Center
02:59PM 35.9944 -78.9372 283° West 272 313 10,700 3,420 Climbing Washington Center
03:00PM 36.0081 -79.0508 278° West 306 352 13,600 3,000 Climbing Washington Center
03:01PM 36.0231 -79.1797 278° West 336 387 16,700 2,760 Climbing Washington Center
03:02PM 36.0567 -79.3072 288° West 375 432 19,200 2,160 Climbing Washington Center
03:03PM 36.1272 -79.3825 319° Northwest 366 421 21,200 1,860 Climbing Washington Center
03:04PM 36.2300 -79.4364 337° Northwest 359 413 23,000 1,620 Climbing Washington Center
03:05PM 36.3356 -79.5217 327° Northwest 397 457 24,500 960 Climbing Washington Center
03:06PM 36.4167 -79.5953 324° Northwest 397 457 25,000 240 Climbing Washington Center
03:07PM 36.5100 -79.6778 325° Northwest 402 463 25,000 60 Level Washington Center
03:08PM 36.6022 -79.7858 317° Northwest 407 468 25,200 960 Climbing Washington Center
03:09PM 36.6647 -79.9058 303° West 412 474 27,000 1,680 Climbing Washington Center
03:10PM 36.7308 -80.0339 303° West 425 489 28,500 1,380 Climbing Washington Center
03:11PM 36.7989 -80.1650 303° West 437 503 29,800 1,440 Climbing Washington Center
03:12PM 36.8911 -80.3431 303° West 467 537 32,100 1,380 Climbing Atlanta Center
03:13PM 36.9639 -80.4825 303° West 455 524 33,200 720 Climbing Atlanta Center
03:14PM 37.0281 -80.6094 302° West 443 510 33,600 840 Climbing Atlanta Center
03:17PM 37.2381 -80.8325 320° Northwest 420 483 36,100 960 Climbing Indianapolis Center
03:18PM 37.3367 -80.9067 329° Northwest 420 483 37,000 360 Climbing Indianapolis Center
03:19PM 37.4322 -80.9800 329° Northwest 414 476 36,900 -660 Descending Indianapolis Center
03:20PM 37.5497 -81.0697 329° Northwest 420 483 35,700 -1,380 Descending Indianapolis Center
03:21PM 37.6472 -81.1464 328° Northwest 422 486 34,100 -900 Descending Indianapolis Center
03:22PM 37.7436 -81.2222 328° Northwest 421 484 33,900 -960 Descending Indianapolis Center
03:23PM 37.8581 -81.3119 328° Northwest 423 487 32,200 -1,560 Descending Indianapolis Center
03:24PM 37.9619 -81.3942 328° Northwest 436 502 30,700 -1,080 Descending Indianapolis Center
03:25PM 38.0683 -81.4792 328° Northwest 448 516 30,000 -360 Descending Indianapolis Center
03:26PM 38.1739 -81.5636 328° Northwest 446 513 30,000  Level Indianapolis Center
03:27PM 38.2800 -81.6464 329° Northwest 444 511 30,000  Level Indianapolis Center
03:28PM 38.3864 -81.7322 328° Northwest 446 513 30,000  Level Indianapolis Center
03:29PM 38.4922 -81.8175 328° Northwest 446 513 30,000 -60 Level Indianapolis Center
03:30PM 38.6194 -81.9194 328° Northwest 445 512 29,900 -600 Descending Indianapolis Center
03:31PM 38.7256 -82.0039 328° Northwest 444 511 28,800 -1,860 Descending Indianapolis Center
03:32PM 38.8358 -82.0642 337° Northwest 430 495 26,100 -2,700 Descending Indianapolis Center
03:33PM 38.9464 -82.1047 344° North 413 475 23,300 -2,400 Descending Indianapolis Center
03:34PM 39.0592 -82.1497 343° North 420 483 21,200 -2,040 Descending Indianapolis Center
03:35PM 39.1717 -82.1953 343° North 423 487 19,200 -2,040 Descending Indianapolis Center
03:36PM 39.2806 -82.2378 343° North 410 472 17,000 -2,040 Descending Indianapolis Center
03:37PM 39.3856 -82.2814 342° North 397 457 15,000 -2,280 Descending Indianapolis Center
03:38PM 39.4303 -82.3022 340° North 390 449 14,100 -2,340 Descending Indianapolis Center
03:39PM 39.5094 -82.3292 345° North 388 447 12,600 -1,860 Descending Indianapolis Center
03:39PM 39.5175 -82.3369 323° Northwest 385 443 12,400 -1,560 Descending Indianapolis Center
03:40PM 39.6039 -82.3694 344° North 358 412 11,000 -1,560 Descending Indianapolis Center
03:40PM 39.6025 -82.3714 227° Southwest 348 400 11,000 -900 Level Indianapolis Center
03:40PM 39.6739 -82.4175 334° Northwest 298 343 10,200 -900 Descending Indianapolis Center
03:41PM 39.6811 -82.4219 335° Northwest 312 359 10,100 -1,740 Descending Indianapolis Center
03:42PM 39.7547 -82.4761 331° Northwest 285 328 8,300 -1,560 Descending Indianapolis Center
03:42PM 39.7511 -82.4692 124° Southeast 291 335 8,500 -1,500 Climbing Indianapolis Center
03:43PM 39.8214 -82.5175 332° Northwest 286 329 6,700 -1,800 Descending Indianapolis Center
03:44PM 39.8892 -82.5611 334° Northwest 278 320 4,800 -1,200 Descending Indianapolis Center
03:45PM 39.9697 -82.6128 334° Northwest 276 318 4,300 -900 Descending Indianapolis Center
03:46PM 39.9653 -82.6967 266° West 207 238 3,100 -1,020 Descending Indianapolis Center
03:47PM 39.9844 -82.7625 291° West 160 184 2,400 -720 Descending Indianapolis Center
03:48PM 39.9881 -82.8147 275° West 139 160 1,700 -720 Descending Indianapolis Center
03:49PM 39.9900 -82.8617 273° West 131 151 1,000 -720 Descending Indianapolis Center
03:51PM 39.9833 -82.8833 294° West  Level FlightAware Approximate